Cedar Park's Hourly Summary for Thursday, April 20, 2017
Hour Temp
(f)
RH
(%)
Solar Rad.
(MJ/m2)
Rainfall
(in)
Wind
(mph)
4/20/2017 12:00 AM 70 84 0 0 6.43
4/20/2017 1:00 AM 69 89 0 0 6.99
4/20/2017 2:00 AM 68 98 0 0 6.36
4/20/2017 3:00 AM 68 96 0 0 5.7
4/20/2017 4:00 AM 68 94 0 0 6.71
4/20/2017 5:00 AM 67 98 0 0 4.59
4/20/2017 6:00 AM 67 99 0 0 4.37
4/20/2017 7:00 AM 67 100 0 0 3.09
4/20/2017 8:00 AM 67 100 0.06 0 2.53
4/20/2017 9:00 AM 68 99 0.24 0 3.31
4/20/2017 10:00 AM 70 97 0.47 0 3.66
4/20/2017 11:00 AM 71 90 0.63 0 4.72
4/20/2017 12:00 PM 73 79 1.08 0 4.48
4/20/2017 1:00 PM 75 66 2.01 0 5.67
4/20/2017 2:00 PM 77 65 1.65 0 2.86
4/20/2017 3:00 PM 79 57 2.4 0 6.08
4/20/2017 4:00 PM 80 57 1.84 0 5.74
4/20/2017 5:00 PM 80 55 1.3 0 6.38
4/20/2017 6:00 PM 80 56 0.61 0 5.05
4/20/2017 7:00 PM 80 57 0.28 0 5.07
4/20/2017 8:00 PM 78 65 0.1 0 4.31
4/20/2017 9:00 PM 76 67 0 0 3.1
4/20/2017 10:00 PM 74 71 0 0 2.4
4/20/2017 11:00 PM 73 76 0 0 4.84
Data Summary 72 79 12.67 0.00 4.77